createdAt,value
2023-09-06T00:00:18.889Z,3.03
2023-09-06T00:02:46.873Z,3.30
2023-09-06T00:05:14.921Z,3.10
2023-09-06T00:07:45.653Z,3.73
2023-09-06T00:10:16.026Z,3.17
2023-09-06T00:12:44.122Z,3.47
2023-09-06T00:15:12.705Z,3.10
2023-09-06T00:17:42.404Z,3.20
2023-09-06T00:20:20.652Z,2.80
2023-09-06T00:22:55.263Z,3.20
2023-09-06T00:25:25.095Z,3.40
2023-09-06T00:27:53.434Z,3.37
2023-09-06T00:30:22.075Z,3.50
2023-09-06T00:32:54.165Z,3.27
2023-09-06T00:35:23.367Z,3.10
2023-09-06T00:37:51.445Z,3.30
2023-09-06T00:40:20.376Z,3.80
2023-09-06T00:42:50.300Z,3.37
2023-09-06T00:45:20.804Z,3.30
2023-09-06T00:47:49.082Z,3.10
2023-09-06T00:50:17.345Z,3.80
2023-09-06T00:52:45.422Z,3.47
2023-09-06T00:55:13.644Z,3.40
2023-09-06T00:57:42.521Z,3.33
2023-09-06T01:00:18.354Z,3.67
2023-09-06T01:02:46.528Z,3.20
2023-09-06T01:05:15.025Z,3.10
2023-09-06T01:07:43.053Z,3.47
2023-09-06T01:10:11.470Z,3.20
2023-09-06T01:12:39.737Z,3.70
2023-09-06T01:15:09.245Z,3.67
2023-09-06T01:17:40.379Z,3.60
2023-09-06T01:20:16.166Z,3.30
2023-09-06T01:22:46.458Z,3.27
2023-09-06T01:25:17.815Z,3.50
2023-09-06T01:27:46.167Z,3.57
2023-09-06T01:30:14.414Z,3.37
2023-09-06T01:32:43.090Z,3.40
2023-09-06T01:35:12.021Z,3.60
2023-09-06T01:37:40.452Z,3.57
2023-09-06T01:40:18.477Z,3.53
2023-09-06T01:42:48.120Z,3.47
2023-09-06T01:45:18.866Z,3.17
2023-09-06T01:47:48.184Z,3.50
2023-09-06T01:50:20.327Z,3.40
2023-09-06T01:52:48.591Z,3.50
2023-09-06T01:55:16.790Z,3.50
2023-09-06T01:57:46.567Z,3.40
2023-09-06T02:00:24.100Z,3.37
2023-09-06T02:02:52.186Z,3.40
2023-09-06T02:05:20.536Z,3.40
2023-09-06T02:07:48.728Z,3.20
2023-09-06T02:10:16.872Z,3.33
2023-09-06T02:12:45.544Z,3.60
2023-09-06T02:15:16.009Z,3.30
2023-09-06T02:17:44.873Z,3.93
2023-09-06T02:20:18.772Z,3.33
2023-09-06T02:22:48.431Z,2.90
2023-09-06T02:25:17.256Z,3.60
2023-09-06T02:27:45.361Z,3.37
2023-09-06T02:30:15.374Z,3.13
2023-09-06T02:32:43.609Z,3.30
2023-09-06T02:35:12.536Z,2.93
2023-09-06T02:37:41.629Z,3.40
2023-09-06T02:40:15.177Z,3.47
2023-09-06T02:42:43.345Z,3.10
2023-09-06T02:45:13.593Z,3.37
2023-09-06T02:47:49.670Z,3.50
2023-09-06T02:50:19.126Z,3.70
2023-09-06T02:52:47.301Z,3.30
2023-09-06T02:55:15.458Z,3.90
2023-09-06T02:57:43.681Z,3.20
2023-09-06T03:00:25.446Z,3.43
2023-09-06T03:02:56.511Z,3.00
2023-09-06T03:05:28.159Z,3.63
2023-09-06T03:07:56.481Z,3.30
2023-09-06T03:10:26.341Z,3.43
2023-09-06T03:12:55.774Z,3.30
2023-09-06T03:15:28.505Z,3.50
2023-09-06T03:18:03.536Z,3.23
2023-09-06T03:20:35.206Z,3.37
2023-09-06T03:23:19.210Z,3.57
2023-09-06T03:25:55.235Z,3.57
2023-09-06T03:28:27.000Z,3.40
2023-09-06T03:30:59.798Z,3.30
2023-09-06T03:33:30.787Z,3.20
2023-09-06T03:35:59.365Z,3.67
2023-09-06T03:38:29.784Z,3.30
2023-09-06T03:41:03.458Z,3.37
2023-09-06T03:43:33.439Z,3.33
2023-09-06T03:46:06.015Z,3.63
2023-09-06T03:48:38.192Z,3.60
2023-09-06T03:51:06.632Z,3.60
2023-09-06T03:53:38.587Z,3.70
2023-09-06T03:56:07.716Z,3.57
2023-09-06T03:58:42.209Z,3.80
2023-09-06T04:01:12.745Z,3.37
2023-09-06T04:03:44.162Z,3.73
2023-09-06T04:06:14.927Z,3.30
2023-09-06T04:08:44.236Z,3.30
2023-09-06T04:11:14.983Z,3.70
2023-09-06T04:13:44.652Z,3.13
2023-09-06T04:16:16.075Z,3.63
2023-09-06T04:18:46.621Z,3.70
2023-09-06T04:21:15.354Z,3.73
2023-09-06T04:23:46.057Z,3.60
2023-09-06T04:26:17.688Z,3.53
2023-09-06T04:28:45.825Z,3.60
2023-09-06T04:31:19.038Z,3.33
2023-09-06T04:33:50.478Z,3.63
2023-09-06T04:36:27.022Z,3.70
2023-09-06T04:39:01.842Z,3.83
2023-09-06T04:41:33.455Z,3.80
2023-09-06T04:44:06.289Z,3.90
2023-09-06T04:46:34.436Z,3.70
2023-09-06T04:49:04.840Z,4.03
2023-09-06T04:51:32.979Z,3.23
2023-09-06T04:54:03.995Z,3.53
2023-09-06T04:56:36.290Z,3.47
2023-09-06T04:59:05.506Z,3.57
2023-09-06T05:01:33.944Z,3.97
2023-09-06T05:04:04.614Z,3.60
2023-09-06T05:06:32.762Z,2.97
2023-09-06T05:09:01.127Z,3.73
2023-09-06T05:11:29.595Z,3.80
2023-09-06T05:13:57.651Z,4.07
2023-09-06T05:16:29.005Z,3.93
2023-09-06T05:18:57.347Z,4.10
2023-09-06T05:21:30.709Z,4.07
2023-09-06T05:23:58.710Z,4.57
2023-09-06T05:26:26.822Z,4.27
2023-09-06T05:28:54.844Z,4.83
2023-09-06T05:31:23.369Z,4.60
2023-09-06T05:33:53.417Z,4.83
2023-09-06T05:36:24.119Z,4.60
2023-09-06T05:38:53.716Z,4.53
2023-09-06T05:41:24.885Z,4.50
2023-09-06T05:43:53.525Z,4.93
2023-09-06T05:46:32.350Z,4.57
2023-09-06T05:49:09.533Z,4.50
2023-09-06T05:51:41.559Z,4.40
2023-09-06T05:54:11.188Z,4.50
2023-09-06T05:56:42.719Z,4.60
2023-09-06T05:59:14.440Z,4.63
2023-09-06T06:01:43.692Z,4.60
2023-09-06T06:04:12.591Z,4.57
2023-09-06T06:06:40.797Z,4.33
2023-09-06T06:09:12.584Z,4.07
2023-09-06T06:11:42.364Z,4.30
2023-09-06T06:14:11.408Z,4.90
2023-09-06T06:16:40.071Z,4.50
2023-09-06T06:19:08.389Z,4.60
2023-09-06T06:21:36.433Z,4.60
2023-09-06T06:24:04.865Z,4.30
2023-09-06T06:26:33.264Z,4.00
2023-09-06T06:29:03.352Z,4.03
2023-09-06T06:31:31.714Z,4.10
2023-09-06T06:34:00.570Z,4.10
2023-09-06T06:36:28.634Z,4.03
2023-09-06T06:38:57.752Z,3.83
2023-09-06T06:41:26.924Z,4.20
2023-09-06T06:43:55.261Z,4.10
2023-09-06T06:46:28.412Z,3.93
2023-09-06T06:48:57.793Z,4.00
2023-09-06T06:51:27.096Z,3.97
2023-09-06T06:53:55.556Z,3.70
2023-09-06T06:56:23.706Z,3.90
2023-09-06T06:58:51.855Z,3.80
2023-09-06T07:01:21.035Z,3.60
2023-09-06T07:03:50.619Z,3.50
2023-09-06T07:06:19.098Z,3.23
2023-09-06T07:08:47.820Z,3.00
2023-09-06T07:11:17.356Z,3.40
2023-09-06T07:13:47.728Z,3.60
2023-09-06T07:16:16.312Z,3.23
2023-09-06T07:18:44.794Z,3.40
2023-09-06T07:21:14.337Z,3.00
2023-09-06T07:23:42.519Z,3.10
2023-09-06T07:26:10.793Z,2.90
2023-09-06T07:28:40.307Z,3.00
2023-09-06T07:31:08.403Z,3.07
2023-09-06T07:33:36.555Z,2.80
2023-09-06T07:36:05.310Z,2.90
2023-09-06T07:38:35.071Z,2.80
2023-09-06T07:41:04.660Z,3.30
2023-09-06T07:43:32.744Z,3.10
2023-09-06T07:46:02.112Z,2.70
2023-09-06T07:48:31.739Z,3.57
2023-09-06T07:51:00.626Z,3.33
2023-09-06T07:53:28.752Z,3.40
2023-09-06T07:55:58.191Z,3.60
2023-09-06T07:58:27.186Z,3.90
2023-09-06T08:01:15.205Z,3.23
2023-09-06T08:03:47.665Z,3.00
2023-09-06T08:06:16.656Z,3.43
2023-09-06T08:08:45.529Z,3.53
2023-09-06T08:11:15.000Z,3.03
2023-09-06T08:13:43.627Z,3.40
2023-09-06T08:16:13.193Z,3.70
2023-09-06T08:18:41.828Z,3.37
2023-09-06T08:21:10.125Z,3.10
2023-09-06T08:23:38.244Z,3.70
2023-09-06T08:26:06.280Z,3.43
2023-09-06T08:28:36.762Z,3.17
2023-09-06T08:31:05.647Z,3.47
2023-09-06T08:33:33.870Z,3.07
2023-09-06T08:36:02.054Z,3.43
2023-09-06T08:38:30.449Z,3.37
2023-09-06T08:40:58.783Z,3.13
2023-09-06T08:43:27.464Z,3.60
2023-09-06T08:45:59.039Z,3.37
2023-09-06T08:48:27.625Z,3.17
2023-09-06T08:50:56.622Z,2.90
2023-09-06T08:53:24.792Z,3.50
2023-09-06T08:55:53.132Z,4.50
2023-09-06T08:58:21.149Z,3.00
2023-09-06T09:00:49.232Z,3.73
2023-09-06T09:03:18.805Z,3.50
2023-09-06T09:05:46.898Z,3.50
2023-09-06T09:08:14.895Z,3.47
2023-09-06T09:10:43.647Z,3.70
2023-09-06T09:13:13.146Z,3.40
2023-09-06T09:15:41.212Z,3.40
2023-09-06T09:18:12.779Z,3.37
2023-09-06T09:20:42.613Z,3.47
2023-09-06T09:23:13.613Z,3.40
2023-09-06T09:25:48.229Z,3.50
2023-09-06T09:28:16.606Z,3.10
2023-09-06T09:30:44.679Z,3.07
2023-09-06T09:33:12.780Z,3.23
2023-09-06T09:35:42.691Z,2.90
2023-09-06T09:38:12.030Z,2.73
2023-09-06T09:43:11.036Z,3.23
2023-09-06T09:45:41.729Z,2.90
2023-09-06T09:48:09.895Z,3.43
2023-09-06T09:50:39.695Z,2.83
2023-09-06T09:55:43.560Z,3.20
2023-09-06T09:58:12.306Z,3.37
2023-09-06T10:00:42.776Z,3.40
2023-09-06T10:03:12.076Z,3.43
2023-09-06T10:05:40.445Z,2.83
2023-09-06T10:08:11.468Z,3.10
2023-09-06T10:10:40.510Z,3.10
2023-09-06T10:13:09.320Z,2.73
2023-09-06T10:15:38.191Z,2.80
2023-09-06T10:18:08.207Z,2.97
2023-09-06T10:20:36.875Z,2.80
2023-09-06T10:23:07.129Z,3.00
2023-09-06T10:25:41.750Z,3.07
2023-09-06T10:28:10.084Z,2.83
2023-09-06T10:30:45.361Z,3.17
2023-09-06T10:33:23.176Z,2.70
2023-09-06T10:35:52.011Z,2.90
2023-09-06T10:38:20.062Z,2.87
2023-09-06T10:41:13.414Z,2.70
2023-09-06T10:44:04.494Z,3.00
2023-09-06T10:46:32.877Z,2.90
2023-09-06T10:49:22.390Z,3.10
2023-09-06T10:51:58.579Z,3.13
2023-09-06T10:54:26.698Z,3.30
2023-09-06T10:57:00.992Z,2.80
2023-09-06T10:59:30.026Z,3.57
2023-09-06T11:02:09.247Z,2.77
2023-09-06T11:04:37.678Z,2.90
2023-09-06T11:07:11.083Z,2.83
2023-09-06T11:09:45.476Z,3.30
2023-09-06T11:12:15.406Z,3.10
2023-09-06T11:14:44.980Z,3.17
2023-09-06T11:17:21.869Z,2.83
2023-09-06T11:19:50.054Z,2.83
2023-09-06T11:22:18.544Z,2.50
2023-09-06T11:24:47.207Z,3.00
2023-09-06T11:27:21.069Z,2.67
2023-09-06T11:29:50.635Z,2.93
2023-09-06T11:32:19.247Z,2.90
2023-09-06T11:34:47.351Z,2.70
2023-09-06T11:37:16.890Z,2.43
2023-09-06T11:39:45.407Z,2.70
2023-09-06T11:42:15.683Z,2.90
2023-09-06T11:44:49.116Z,2.60
2023-09-06T11:47:20.979Z,2.70
2023-09-06T11:49:50.582Z,2.60
2023-09-06T11:52:20.610Z,2.60
2023-09-06T11:54:51.289Z,2.43
2023-09-06T11:57:25.017Z,2.67
2023-09-06T11:59:58.669Z,2.47
2023-09-06T12:02:28.897Z,2.53
2023-09-06T12:05:02.463Z,2.47
2023-09-06T12:07:30.891Z,2.60
2023-09-06T12:09:59.189Z,3.00
2023-09-06T12:12:27.660Z,2.63
2023-09-06T12:14:58.580Z,2.80
2023-09-06T12:17:27.881Z,2.57
2023-09-06T12:20:00.423Z,2.90
2023-09-06T12:22:28.555Z,2.50
2023-09-06T12:24:57.051Z,3.03
2023-09-06T12:27:26.513Z,2.40
2023-09-06T12:29:54.924Z,2.60
2023-09-06T12:32:25.277Z,2.43
2023-09-06T12:34:53.914Z,2.60
2023-09-06T12:37:22.069Z,2.57
2023-09-06T12:39:50.129Z,2.77
2023-09-06T12:42:18.782Z,2.77
2023-09-06T12:44:46.881Z,2.90
2023-09-06T12:47:17.627Z,2.80
2023-09-06T12:49:47.634Z,2.53
2023-09-06T12:52:21.306Z,2.80
2023-09-06T12:54:49.931Z,2.53
2023-09-06T12:57:18.649Z,2.43
2023-09-06T12:59:46.745Z,2.57
2023-09-06T13:02:15.242Z,3.00
2023-09-06T13:04:43.564Z,2.47
2023-09-06T13:07:13.358Z,2.83
2023-09-06T13:09:41.494Z,2.47
2023-09-06T13:12:10.009Z,2.83
2023-09-06T13:14:38.444Z,2.60
2023-09-06T13:17:06.956Z,2.70
2023-09-06T13:19:35.066Z,2.67
2023-09-06T13:22:04.908Z,2.80
2023-09-06T13:24:35.044Z,2.90
2023-09-06T13:27:07.012Z,2.50
2023-09-06T13:29:36.390Z,2.93
2023-09-06T13:32:05.332Z,2.43
2023-09-06T13:34:33.575Z,2.87
2023-09-06T13:37:02.439Z,2.57
2023-09-06T13:39:30.550Z,2.90
2023-09-06T13:42:02.064Z,2.63
2023-09-06T13:44:34.525Z,2.80
2023-09-06T13:47:02.577Z,3.00
2023-09-06T13:49:30.615Z,2.70
2023-09-06T13:51:58.682Z,2.77
2023-09-06T13:54:26.944Z,2.93
2023-09-06T13:56:55.455Z,2.80
2023-09-06T13:59:25.005Z,2.67
2023-09-06T14:01:53.325Z,2.70
2023-09-06T14:04:21.531Z,2.87
2023-09-06T14:06:50.414Z,2.50
2023-09-06T14:09:18.814Z,2.50
2023-09-06T14:11:46.810Z,2.63
2023-09-06T14:14:14.925Z,2.60
2023-09-06T14:16:44.552Z,2.70
2023-09-06T14:19:12.743Z,2.70
2023-09-06T14:21:46.710Z,2.40
2023-09-06T14:24:16.278Z,2.60
2023-09-06T14:26:45.284Z,2.70
2023-09-06T14:29:14.308Z,2.67
2023-09-06T14:31:42.607Z,2.57
2023-09-06T14:34:12.198Z,2.40
2023-09-06T14:36:40.301Z,2.90
2023-09-06T14:39:09.612Z,2.70
2023-09-06T14:41:37.909Z,2.50
2023-09-06T14:44:06.685Z,2.50
2023-09-06T14:46:36.093Z,2.40
2023-09-06T14:49:07.020Z,2.30
2023-09-06T14:51:36.464Z,2.30
2023-09-06T14:54:04.761Z,2.60
2023-09-06T14:56:36.502Z,2.60
2023-09-06T14:59:06.173Z,2.50
2023-09-06T15:01:34.765Z,2.30
2023-09-06T15:04:03.670Z,2.63
2023-09-06T15:06:47.208Z,2.63
2023-09-06T15:09:21.364Z,2.20
2023-09-06T15:11:49.492Z,2.47
2023-09-06T15:14:17.566Z,2.53
2023-09-06T15:16:46.896Z,2.20
2023-09-06T15:19:15.049Z,2.30
2023-09-06T15:21:44.342Z,4.77
2023-09-06T15:24:12.680Z,2.80
2023-09-06T15:26:42.140Z,2.20
2023-09-06T15:29:10.766Z,2.53
2023-09-06T15:31:38.839Z,2.60
2023-09-06T15:34:06.952Z,2.40
2023-09-06T15:36:35.201Z,2.60
2023-09-06T15:39:03.398Z,2.60
2023-09-06T15:41:33.638Z,2.33
2023-09-06T15:44:06.038Z,2.60
2023-09-06T15:46:34.730Z,2.33
2023-09-06T15:49:02.847Z,2.37
2023-09-06T15:51:31.099Z,2.40
2023-09-06T15:53:59.336Z,2.23
2023-09-06T15:56:27.539Z,2.50
2023-09-06T15:58:56.318Z,2.53
2023-09-06T16:01:28.004Z,2.30
2023-09-06T16:03:58.202Z,2.30
2023-09-06T16:06:27.123Z,2.47
2023-09-06T16:08:55.426Z,2.20
2023-09-06T16:11:24.025Z,2.30
2023-09-06T16:13:52.136Z,2.20
2023-09-06T16:16:20.246Z,2.40
2023-09-06T16:18:51.693Z,2.20
2023-09-06T16:21:19.779Z,2.70
2023-09-06T16:23:47.863Z,2.13
2023-09-06T16:26:16.406Z,2.97
2023-09-06T16:28:44.488Z,3.57
2023-09-06T16:31:12.556Z,3.20
2023-09-06T16:33:40.768Z,2.97
2023-09-06T16:36:10.517Z,2.70
2023-09-06T16:38:39.044Z,2.53
2023-09-06T16:41:07.142Z,3.30
2023-09-06T16:43:35.185Z,2.87
2023-09-06T16:46:03.533Z,2.90
2023-09-06T16:48:31.963Z,3.03
2023-09-06T16:51:00.273Z,2.90
2023-09-06T16:53:30.082Z,3.23
2023-09-06T16:55:58.165Z,3.00
2023-09-06T16:58:26.241Z,3.20
2023-09-06T17:00:54.363Z,2.93
2023-09-06T17:03:22.585Z,3.40
2023-09-06T17:05:51.049Z,2.93
2023-09-06T17:08:20.017Z,2.70
2023-09-06T17:10:49.432Z,2.70
2023-09-06T17:13:17.695Z,2.60
2023-09-06T17:15:45.860Z,3.23
2023-09-06T17:18:14.661Z,3.00
2023-09-06T17:20:43.208Z,3.00
2023-09-06T17:23:12.132Z,2.87
2023-09-06T17:25:41.077Z,2.93
2023-09-06T17:28:12.118Z,3.23
2023-09-06T17:30:40.279Z,3.43
2023-09-06T17:33:14.517Z,2.80
2023-09-06T17:35:43.305Z,3.30
2023-09-06T17:38:13.224Z,2.77
2023-09-06T17:40:42.134Z,3.43
2023-09-06T17:43:12.177Z,3.07
2023-09-06T17:45:40.236Z,3.70
2023-09-06T17:48:12.191Z,3.37
2023-09-06T17:50:42.428Z,3.63
2023-09-06T17:53:14.068Z,3.50
2023-09-06T17:55:42.392Z,3.27
2023-09-06T17:58:12.027Z,3.40
2023-09-06T18:00:40.943Z,2.80
2023-09-06T18:03:09.715Z,2.57
2023-09-06T18:05:40.038Z,3.40
2023-09-06T18:08:12.525Z,3.20
2023-09-06T18:10:42.957Z,3.53
2023-09-06T18:13:14.713Z,3.20
2023-09-06T18:15:43.140Z,3.43
2023-09-06T18:18:14.285Z,3.60
2023-09-06T18:20:42.702Z,3.40
2023-09-06T18:23:11.128Z,3.70
2023-09-06T18:25:44.132Z,3.43
2023-09-06T18:28:14.958Z,3.67
2023-09-06T18:30:45.860Z,3.90
2023-09-06T18:33:15.048Z,3.80
2023-09-06T18:35:46.310Z,3.70
2023-09-06T18:38:15.494Z,3.53
2023-09-06T18:40:44.003Z,4.00
2023-09-06T18:43:13.974Z,3.77
2023-09-06T18:45:42.296Z,4.00
2023-09-06T18:48:14.868Z,3.67
2023-09-06T18:50:43.990Z,3.57
2023-09-06T18:53:12.445Z,4.23
2023-09-06T18:55:44.168Z,3.90
2023-09-06T18:58:12.751Z,3.80
2023-09-06T19:00:42.438Z,4.30
2023-09-06T19:03:14.181Z,4.20
2023-09-06T19:05:43.187Z,4.00
2023-09-06T19:08:13.285Z,4.33
2023-09-06T19:10:42.333Z,4.20
2023-09-06T19:13:10.588Z,4.07
2023-09-06T19:15:39.660Z,4.17
2023-09-06T19:18:09.292Z,3.80
2023-09-06T19:20:41.099Z,3.97
2023-09-06T19:23:11.731Z,3.83
2023-09-06T19:25:43.386Z,4.43
2023-09-06T19:28:12.331Z,3.27
2023-09-06T19:30:40.446Z,3.63
2023-09-06T19:33:10.093Z,4.70
2023-09-06T19:35:38.796Z,4.37
2023-09-06T19:38:07.089Z,4.07
2023-09-06T19:40:35.527Z,3.70
2023-09-06T19:43:03.636Z,4.20
2023-09-06T19:45:31.740Z,3.70
2023-09-06T19:47:59.991Z,4.00
2023-09-06T19:50:31.201Z,3.60
2023-09-06T19:52:59.721Z,3.93
2023-09-06T19:55:27.757Z,3.77
2023-09-06T19:57:56.035Z,4.00
2023-09-06T20:00:24.124Z,3.97
2023-09-06T20:02:53.202Z,3.63
2023-09-06T20:05:21.948Z,4.20
2023-09-06T20:07:51.492Z,3.90
2023-09-06T20:10:19.531Z,4.30
2023-09-06T20:12:47.578Z,3.63
2023-09-06T20:15:16.410Z,4.00
2023-09-06T20:17:45.133Z,4.00
2023-09-06T20:20:13.574Z,4.00
2023-09-06T20:22:41.665Z,4.17
2023-09-06T20:25:11.394Z,3.90
2023-09-06T20:27:39.517Z,3.73
2023-09-06T20:30:09.153Z,3.50
2023-09-06T20:32:37.667Z,3.80
2023-09-06T20:35:06.251Z,3.43
2023-09-06T20:37:34.374Z,3.67
2023-09-06T20:40:02.404Z,4.03
2023-09-06T20:42:32.110Z,3.70
2023-09-06T20:45:00.294Z,4.13
2023-09-06T20:47:28.937Z,3.53
2023-09-06T20:49:57.216Z,3.67
2023-09-06T20:52:25.367Z,3.73
2023-09-06T20:54:53.786Z,3.50
2023-09-06T20:57:22.051Z,3.57
2023-09-06T20:59:51.966Z,3.77
2023-09-06T21:02:20.352Z,3.53
2023-09-06T21:04:48.500Z,3.60
2023-09-06T21:07:16.729Z,3.70
2023-09-06T21:09:44.916Z,3.20
2023-09-06T21:12:13.451Z,3.47
2023-09-06T21:14:41.894Z,3.57
2023-09-06T21:17:11.314Z,3.40
2023-09-06T21:19:39.372Z,3.00
2023-09-06T21:22:07.412Z,3.43
2023-09-06T21:24:35.448Z,3.47
2023-09-06T21:27:03.698Z,3.30
2023-09-06T21:29:32.118Z,3.00
2023-09-06T21:32:00.137Z,3.17
2023-09-06T21:34:29.732Z,3.47
2023-09-06T21:36:57.949Z,3.70
2023-09-06T21:39:26.183Z,3.60
2023-09-06T21:41:54.781Z,3.50
2023-09-06T21:44:22.880Z,3.30
2023-09-06T21:46:50.997Z,3.47
2023-09-06T21:49:19.127Z,3.40
2023-09-06T21:51:48.531Z,3.63
2023-09-06T21:54:16.906Z,3.50
2023-09-06T21:56:45.263Z,2.87
2023-09-06T21:59:15.989Z,3.20
2023-09-06T22:01:44.366Z,3.53
2023-09-06T22:04:31.736Z,3.87
2023-09-06T22:07:19.886Z,3.67
2023-09-06T22:10:07.800Z,3.20
2023-09-06T22:12:54.230Z,3.10
2023-09-06T22:15:22.471Z,3.50
2023-09-06T22:17:50.594Z,3.33
2023-09-06T22:20:20.284Z,3.40
2023-09-06T22:22:50.228Z,3.50
2023-09-06T22:25:18.408Z,3.70
2023-09-06T22:27:46.452Z,3.67
2023-09-06T22:30:14.954Z,3.93
2023-09-06T22:32:43.017Z,3.87
2023-09-06T22:35:11.589Z,3.60
2023-09-06T22:37:40.676Z,3.73
2023-09-06T22:40:11.579Z,3.83
2023-09-06T22:42:40.069Z,3.50
2023-09-06T22:45:09.411Z,4.00
2023-09-06T22:47:37.494Z,3.80
2023-09-06T22:50:08.200Z,3.57
2023-09-06T22:52:36.274Z,3.90
2023-09-06T22:55:04.551Z,3.83
2023-09-06T22:57:34.053Z,3.90
2023-09-06T23:00:02.155Z,4.13
2023-09-06T23:02:30.647Z,4.20
2023-09-06T23:04:58.701Z,3.93
2023-09-06T23:07:29.147Z,3.80
2023-09-06T23:09:57.815Z,4.13
2023-09-06T23:12:28.382Z,4.20
2023-09-06T23:14:58.019Z,4.07
2023-09-06T23:17:32.612Z,4.70
2023-09-06T23:20:10.882Z,4.10
2023-09-06T23:22:42.726Z,4.10
2023-09-06T23:25:15.186Z,4.27
2023-09-06T23:27:43.915Z,4.03
2023-09-06T23:30:18.167Z,3.87
2023-09-06T23:32:48.585Z,3.90
2023-09-06T23:35:17.145Z,4.23
2023-09-06T23:37:45.986Z,4.20
2023-09-06T23:40:21.655Z,4.47
2023-09-06T23:42:50.609Z,4.10
2023-09-06T23:45:22.136Z,4.20
2023-09-06T23:47:53.868Z,4.97
2023-09-06T23:50:21.944Z,4.27
2023-09-06T23:52:53.879Z,4.20
2023-09-06T23:55:22.692Z,4.27
2023-09-06T23:57:50.829Z,4.20
